createdAt,value
2022-08-24T00:02:18.625Z,20.53
2022-08-24T00:07:27.656Z,20.42
2022-08-24T00:12:31.167Z,20.40
2022-08-24T00:17:33.806Z,20.46
2022-08-24T00:22:35.932Z,20.46
2022-08-24T00:27:39.518Z,20.45
2022-08-24T00:32:42.727Z,20.45
2022-08-24T00:37:45.701Z,20.40
2022-08-24T00:42:48.050Z,20.44
2022-08-24T00:47:55.135Z,20.52
2022-08-24T00:53:00.739Z,20.48
2022-08-24T00:58:08.076Z,20.49
2022-08-24T01:03:14.190Z,20.46
2022-08-24T01:08:17.149Z,20.50
2022-08-24T01:13:19.385Z,20.51
2022-08-24T01:18:43.755Z,20.45
2022-08-24T01:23:49.381Z,20.43
2022-08-24T01:28:56.211Z,20.47
2022-08-24T01:33:59.074Z,20.45
2022-08-24T01:39:10.340Z,20.40
2022-08-24T01:44:12.243Z,20.26
2022-08-24T01:49:14.281Z,20.40
2022-08-24T01:54:16.177Z,20.27
2022-08-24T01:59:19.516Z,20.39
2022-08-24T02:04:21.257Z,20.30
2022-08-24T02:09:22.931Z,20.38
2022-08-24T02:14:30.644Z,20.42
2022-08-24T02:19:35.340Z,20.41
2022-08-24T02:24:37.595Z,20.44
2022-08-24T02:29:39.225Z,20.46
2022-08-24T02:34:41.248Z,20.48
2022-08-24T02:39:42.885Z,20.42
2022-08-24T02:44:44.577Z,20.45
2022-08-24T02:49:46.211Z,20.45
2022-08-24T02:54:47.936Z,20.42
2022-08-24T02:59:49.530Z,20.51
2022-08-24T03:04:51.107Z,20.54
2022-08-24T03:09:52.683Z,20.46
2022-08-24T03:14:55.096Z,20.51
2022-08-24T03:19:57.440Z,20.54
2022-08-24T03:24:59.133Z,20.67
2022-08-24T03:30:01.392Z,20.61
2022-08-24T03:35:04.549Z,20.59
2022-08-24T03:40:07.831Z,20.51
2022-08-24T03:45:24.166Z,20.58
2022-08-24T03:50:27.177Z,20.56
2022-08-24T03:55:28.750Z,20.69
2022-08-24T04:00:30.387Z,20.57
2022-08-24T04:05:34.909Z,20.56
2022-08-24T04:10:38.347Z,20.55
2022-08-24T04:15:41.716Z,20.58
2022-08-24T04:20:43.665Z,20.58
2022-08-24T04:25:48.025Z,20.60
2022-08-24T04:30:50.844Z,20.62
2022-08-24T04:35:52.636Z,20.64
2022-08-24T04:40:54.223Z,20.68
2022-08-24T04:45:55.866Z,20.79
2022-08-24T04:51:03.008Z,20.72
2022-08-24T04:56:09.439Z,20.75
2022-08-24T05:01:16.774Z,20.81
2022-08-24T05:06:20.372Z,20.82
2022-08-24T05:11:23.141Z,20.81
2022-08-24T05:16:26.456Z,20.84
2022-08-24T05:21:28.493Z,20.87
2022-08-24T05:26:31.149Z,20.88
2022-08-24T05:31:33.492Z,21.03
2022-08-24T05:36:38.426Z,21.02
2022-08-24T05:41:44.358Z,21.07
2022-08-24T05:46:46.643Z,21.03
2022-08-24T05:51:48.280Z,21.06
2022-08-24T05:56:50.216Z,21.06
2022-08-24T06:01:53.465Z,21.14
2022-08-24T06:06:55.431Z,21.19
2022-08-24T06:11:57.061Z,21.20
2022-08-24T06:16:58.736Z,21.26
2022-08-24T06:22:01.536Z,21.28
2022-08-24T06:27:21.359Z,21.43
2022-08-24T06:32:23.669Z,21.44
2022-08-24T06:37:29.165Z,21.35
2022-08-24T06:42:31.731Z,21.31
2022-08-24T06:47:33.327Z,21.38
2022-08-24T06:52:36.156Z,21.40
2022-08-24T06:57:37.742Z,21.43
2022-08-24T07:02:39.367Z,21.54
2022-08-24T07:07:40.982Z,21.43
2022-08-24T07:12:42.592Z,21.47
2022-08-24T07:17:44.204Z,21.48
2022-08-24T07:22:45.935Z,21.69
2022-08-24T07:27:47.991Z,21.73
2022-08-24T07:32:49.916Z,22.01
2022-08-24T07:37:58.617Z,22.07
2022-08-24T07:43:00.235Z,22.13
2022-08-24T07:53:13.855Z,22.04
2022-08-24T07:58:16.566Z,22.05
2022-08-24T08:03:18.397Z,22.16
2022-08-24T08:08:20.316Z,22.22
2022-08-24T08:13:21.904Z,22.31
2022-08-24T08:18:23.571Z,22.32
2022-08-24T08:23:43.935Z,22.29
2022-08-24T08:28:49.863Z,22.46
2022-08-24T08:33:51.451Z,22.38
2022-08-24T08:38:53.429Z,22.47
2022-08-24T08:44:21.705Z,22.59
2022-08-24T08:49:25.986Z,22.62
2022-08-24T08:54:44.913Z,22.57
2022-08-24T09:00:15.697Z,22.66
2022-08-24T09:05:17.556Z,22.66
2022-08-24T09:10:25.013Z,22.65
2022-08-24T09:15:55.927Z,22.54
2022-08-24T09:21:28.669Z,22.50
2022-08-24T09:26:48.363Z,22.47
2022-08-24T09:32:03.497Z,22.53
2022-08-24T09:37:27.451Z,22.60
2022-08-24T09:43:10.948Z,22.62
2022-08-24T09:48:32.110Z,22.60
2022-08-24T09:53:39.673Z,22.56
2022-08-24T09:59:10.306Z,22.52
2022-08-24T10:04:37.215Z,22.46
2022-08-24T10:10:02.751Z,22.45
2022-08-24T10:15:12.096Z,22.44
2022-08-24T10:20:25.652Z,22.37
2022-08-24T10:25:30.815Z,22.19
2022-08-24T10:30:44.598Z,22.22
2022-08-24T10:35:49.063Z,22.35
2022-08-24T10:41:26.193Z,22.50
2022-08-24T10:46:39.536Z,22.50
2022-08-24T10:52:12.331Z,22.55
2022-08-24T10:57:31.192Z,22.67
2022-08-24T11:02:38.313Z,22.70
2022-08-24T11:08:02.705Z,22.74
2022-08-24T11:13:27.364Z,22.96
2022-08-24T11:18:46.567Z,22.94
2022-08-24T11:23:48.332Z,23.13
2022-08-24T11:28:58.969Z,23.33
2022-08-24T11:34:08.220Z,23.51
2022-08-24T11:39:22.011Z,23.57
2022-08-24T11:44:38.766Z,23.62
2022-08-24T11:50:03.067Z,23.69
2022-08-24T11:55:47.304Z,23.78
2022-08-24T12:00:56.160Z,23.88
2022-08-24T12:06:32.332Z,23.94
2022-08-24T12:11:43.093Z,24.01
2022-08-24T12:16:55.393Z,23.99
2022-08-24T12:22:00.798Z,23.98
2022-08-24T12:27:10.748Z,24.02
2022-08-24T12:32:19.052Z,24.06
2022-08-24T12:37:32.985Z,24.06
2022-08-24T12:42:52.020Z,24.06
2022-08-24T12:48:06.152Z,24.26
2022-08-24T12:53:30.285Z,24.36
2022-08-24T12:58:54.379Z,24.46
2022-08-24T13:04:41.906Z,24.56
2022-08-24T13:09:57.113Z,24.60
2022-08-24T13:15:24.685Z,24.72
2022-08-24T13:20:29.431Z,24.77
2022-08-24T13:25:51.995Z,24.85
2022-08-24T13:30:56.438Z,24.88
2022-08-24T13:36:03.047Z,25.02
2022-08-24T13:41:23.379Z,25.14
2022-08-24T13:46:40.258Z,25.17
2022-08-24T13:51:51.793Z,25.28
2022-08-24T13:57:35.639Z,25.38
2022-08-24T14:03:08.619Z,25.29
2022-08-24T14:08:41.108Z,25.43
2022-08-24T14:13:49.494Z,25.44
2022-08-24T14:19:08.167Z,25.32
2022-08-24T14:24:23.061Z,25.37
2022-08-24T14:29:40.703Z,25.44
2022-08-24T14:35:05.514Z,25.45
2022-08-24T14:40:29.736Z,25.40
2022-08-24T14:45:58.421Z,25.43
2022-08-24T14:51:40.817Z,25.35
2022-08-24T14:57:17.977Z,25.35
2022-08-24T15:02:31.713Z,25.50
2022-08-24T15:07:36.818Z,25.35
2022-08-24T15:12:42.783Z,25.44
2022-08-24T15:18:06.437Z,25.48
2022-08-24T15:23:19.813Z,25.41
2022-08-24T15:28:26.515Z,25.47
2022-08-24T15:33:30.750Z,25.34
2022-08-24T15:38:35.508Z,25.33
2022-08-24T15:43:43.957Z,25.26
2022-08-24T15:48:48.166Z,25.24
2022-08-24T15:53:49.941Z,25.21
2022-08-24T15:58:52.493Z,25.14
2022-08-24T16:03:57.387Z,25.08
2022-08-24T16:09:01.265Z,24.99
2022-08-24T16:14:03.690Z,24.89
2022-08-24T16:19:18.060Z,24.92
2022-08-24T16:24:19.588Z,24.78
2022-08-24T16:29:37.014Z,24.77
2022-08-24T16:34:42.356Z,24.65
2022-08-24T16:39:44.248Z,24.62
2022-08-24T16:44:46.054Z,24.61
2022-08-24T16:49:48.583Z,24.55
2022-08-24T16:54:50.899Z,24.50
2022-08-24T16:59:53.094Z,24.43
2022-08-24T17:04:54.923Z,24.48
2022-08-24T17:09:57.786Z,24.33
2022-08-24T17:14:59.465Z,24.29
2022-08-24T17:20:01.720Z,24.24
2022-08-24T17:25:04.560Z,24.15
2022-08-24T17:30:06.732Z,24.07
2022-08-24T17:35:08.622Z,24.05
2022-08-24T17:40:13.766Z,23.96
2022-08-24T17:45:15.741Z,23.87
2022-08-24T17:50:19.322Z,23.84
2022-08-24T17:55:25.035Z,23.78
2022-08-24T18:00:27.091Z,23.86
2022-08-24T18:05:32.508Z,23.70
2022-08-24T18:10:34.611Z,23.58
2022-08-24T18:15:36.660Z,23.49
2022-08-24T18:20:41.616Z,23.45
2022-08-24T18:25:47.660Z,23.39
2022-08-24T18:30:49.612Z,23.29
2022-08-24T18:35:51.273Z,23.29
2022-08-24T18:40:53.223Z,23.39
2022-08-24T18:45:55.038Z,23.29
2022-08-24T18:50:57.561Z,23.24
2022-08-24T18:56:08.105Z,23.20
2022-08-24T19:01:13.857Z,23.11
2022-08-24T19:06:15.537Z,23.12
2022-08-24T19:11:21.093Z,23.18
2022-08-24T19:16:22.710Z,23.16
2022-08-24T19:21:26.624Z,23.05
2022-08-24T19:26:29.212Z,23.04
2022-08-24T19:31:33.544Z,23.04
2022-08-24T19:36:35.191Z,23.01
2022-08-24T19:41:43.270Z,23.05
2022-08-24T19:46:48.386Z,23.11
2022-08-24T19:51:51.039Z,23.13
2022-08-24T19:56:53.907Z,23.11
2022-08-24T20:01:55.549Z,23.07
2022-08-24T20:06:57.875Z,23.14
2022-08-24T20:11:59.552Z,23.03
2022-08-24T20:17:01.443Z,23.02
2022-08-24T20:22:03.162Z,23.02
2022-08-24T20:27:19.254Z,22.93
2022-08-24T20:32:21.344Z,22.98
2022-08-24T20:37:27.031Z,22.91
2022-08-24T20:42:31.622Z,22.85
2022-08-24T20:47:33.293Z,22.81
2022-08-24T20:52:34.914Z,22.71
2022-08-24T20:57:36.873Z,22.73
2022-08-24T21:02:38.470Z,22.64
2022-08-24T21:07:46.092Z,22.60
2022-08-24T21:12:48.833Z,22.56
2022-08-24T21:17:50.810Z,22.51
2022-08-24T21:22:52.401Z,22.47
2022-08-24T21:27:54.412Z,22.48
2022-08-24T21:33:14.554Z,22.44
2022-08-24T21:38:16.138Z,22.35
2022-08-24T21:43:20.251Z,22.27
2022-08-24T21:48:21.988Z,22.21
2022-08-24T21:53:23.547Z,22.15
2022-08-24T21:58:30.158Z,22.10
2022-08-24T22:03:40.161Z,22.13
2022-08-24T22:08:43.451Z,22.10
2022-08-24T22:13:45.590Z,22.14
2022-08-24T22:18:48.019Z,22.07
2022-08-24T22:23:49.965Z,21.96
2022-08-24T22:28:51.589Z,21.98
2022-08-24T22:33:55.145Z,21.97
2022-08-24T22:38:58.463Z,21.87
2022-08-24T22:44:18.593Z,21.80
2022-08-24T22:49:23.841Z,21.76
2022-08-24T22:54:25.687Z,21.78
2022-08-24T22:59:35.645Z,21.75
2022-08-24T23:04:41.246Z,21.78
2022-08-24T23:09:45.190Z,21.78
2022-08-24T23:14:47.731Z,21.77
2022-08-24T23:20:04.949Z,21.78
2022-08-24T23:25:12.789Z,21.74
2022-08-24T23:30:14.736Z,21.73
2022-08-24T23:35:16.501Z,21.65
2022-08-24T23:40:19.111Z,21.56
2022-08-24T23:45:28.466Z,21.51
2022-08-24T23:50:33.662Z,21.45
2022-08-24T23:55:35.291Z,21.49
